createdAt,value
2022-09-11T00:00:38.975Z,14.80
2022-09-11T00:03:28.036Z,14.60
2022-09-11T00:06:27.734Z,14.80
2022-09-11T00:09:16.960Z,14.80
2022-09-11T00:12:07.304Z,14.80
2022-09-11T00:14:55.103Z,14.80
2022-09-11T00:17:42.923Z,14.80
2022-09-11T00:20:31.640Z,14.80
2022-09-11T00:23:20.279Z,14.80
2022-09-11T00:26:08.175Z,14.80
2022-09-11T00:28:57.473Z,14.80
2022-09-11T00:31:45.263Z,14.70
2022-09-11T00:34:33.688Z,14.70
2022-09-11T00:37:21.513Z,14.70
2022-09-11T00:40:10.016Z,14.70
2022-09-11T00:42:58.226Z,14.90
2022-09-11T00:45:50.215Z,14.80
2022-09-11T00:48:38.131Z,14.80
2022-09-11T00:51:27.689Z,14.80
2022-09-11T00:54:17.249Z,14.80
2022-09-11T00:57:06.858Z,14.80
2022-09-11T00:59:55.949Z,14.80
2022-09-11T01:02:47.787Z,14.80
2022-09-11T01:05:36.490Z,14.80
2022-09-11T01:08:24.322Z,14.80
2022-09-11T01:11:19.204Z,14.70
2022-09-11T01:14:10.785Z,14.70
2022-09-11T01:17:05.209Z,14.80
2022-09-11T01:20:04.564Z,14.70
2022-09-11T01:23:07.414Z,14.70
2022-09-11T01:26:16.238Z,14.80
2022-09-11T01:29:07.449Z,14.80
2022-09-11T01:31:58.135Z,14.80
2022-09-11T01:34:49.232Z,14.80
2022-09-11T01:37:39.911Z,14.80
2022-09-11T01:40:32.284Z,14.80
2022-09-11T01:43:22.955Z,14.80
2022-09-11T01:46:13.925Z,14.80
2022-09-11T01:49:04.791Z,14.80
2022-09-11T01:51:54.585Z,14.80
2022-09-11T01:54:45.530Z,14.80
2022-09-11T01:57:36.877Z,14.80
2022-09-11T02:00:24.939Z,14.80
2022-09-11T02:03:16.798Z,14.80
2022-09-11T02:06:06.557Z,14.80
2022-09-11T02:08:55.144Z,14.80
2022-09-11T02:11:43.851Z,14.80
2022-09-11T02:14:36.094Z,14.80
2022-09-11T02:17:25.555Z,14.80
2022-09-11T02:20:15.238Z,14.80
2022-09-11T02:23:03.057Z,14.80
2022-09-11T02:25:50.940Z,14.90
2022-09-11T02:28:38.861Z,14.80
2022-09-11T02:31:28.012Z,14.90
2022-09-11T02:34:17.898Z,14.90
2022-09-11T02:37:14.756Z,14.90
2022-09-11T02:40:08.656Z,14.90
2022-09-11T02:43:08.653Z,14.90
2022-09-11T02:46:02.765Z,15.00
2022-09-11T02:48:57.192Z,15.00
2022-09-11T02:51:48.015Z,15.00
2022-09-11T02:54:41.853Z,15.00
2022-09-11T02:57:32.532Z,15.00
2022-09-11T03:00:20.359Z,15.10
2022-09-11T03:03:08.232Z,15.10
2022-09-11T03:05:56.412Z,15.10
2022-09-11T03:08:44.549Z,15.10
2022-09-11T03:11:34.290Z,15.00
2022-09-11T03:14:22.303Z,15.10
2022-09-11T03:17:10.204Z,15.10
2022-09-11T03:19:58.204Z,15.10
2022-09-11T03:22:45.949Z,15.00
2022-09-11T03:25:33.808Z,15.00
2022-09-11T03:28:23.463Z,15.00
2022-09-11T03:31:12.708Z,15.00
2022-09-11T03:34:00.731Z,15.00
2022-09-11T03:36:48.927Z,15.00
2022-09-11T03:39:36.826Z,15.00
2022-09-11T03:42:24.761Z,15.00
2022-09-11T03:45:14.251Z,15.00
2022-09-11T03:48:02.263Z,15.00
2022-09-11T03:50:50.046Z,15.00
2022-09-11T03:53:38.846Z,15.00
2022-09-11T03:56:26.690Z,14.90
2022-09-11T03:59:14.526Z,14.90
2022-09-11T04:02:03.702Z,15.00
2022-09-11T04:04:51.514Z,15.00
2022-09-11T04:07:39.257Z,15.00
2022-09-11T04:10:27.075Z,15.00
2022-09-11T04:13:15.429Z,15.00
2022-09-11T04:16:04.663Z,15.00
2022-09-11T04:18:54.322Z,15.00
2022-09-11T04:21:42.363Z,15.00
2022-09-11T04:24:30.247Z,15.00
2022-09-11T04:27:18.420Z,14.90
2022-09-11T04:30:06.776Z,14.90
2022-09-11T04:32:54.770Z,14.90
2022-09-11T04:35:43.919Z,14.90
2022-09-11T04:38:31.778Z,14.90
2022-09-11T04:41:19.563Z,14.90
2022-09-11T04:44:07.354Z,14.90
2022-09-11T04:46:55.580Z,14.90
2022-09-11T04:49:43.466Z,14.90
2022-09-11T04:52:33.776Z,14.80
2022-09-11T04:55:21.587Z,14.80
2022-09-11T04:58:10.126Z,14.80
2022-09-11T05:00:58.179Z,14.80
2022-09-11T05:03:46.023Z,14.80
2022-09-11T05:06:34.001Z,14.80
2022-09-11T05:09:23.361Z,14.80
2022-09-11T05:12:11.151Z,14.80
2022-09-11T05:14:59.100Z,14.80
2022-09-11T05:17:48.378Z,14.90
2022-09-11T05:20:36.214Z,14.90
2022-09-11T05:23:24.147Z,14.90
2022-09-11T05:26:14.899Z,14.90
2022-09-11T05:29:03.410Z,15.00
2022-09-11T05:31:53.102Z,15.00
2022-09-11T05:34:41.024Z,15.00
2022-09-11T05:37:28.948Z,15.00
2022-09-11T05:40:16.922Z,15.00
2022-09-11T05:43:06.085Z,15.10
2022-09-11T05:45:57.708Z,15.10
2022-09-11T05:48:45.928Z,15.10
2022-09-11T05:51:35.775Z,15.00
2022-09-11T05:54:23.717Z,15.00
2022-09-11T05:57:11.586Z,15.00
2022-09-11T06:00:00.808Z,15.00
2022-09-11T06:02:49.049Z,15.00
2022-09-11T06:05:36.850Z,15.00
2022-09-11T06:08:24.704Z,15.10
2022-09-11T06:11:13.392Z,15.10
2022-09-11T06:14:01.240Z,15.10
2022-09-11T06:16:50.719Z,15.20
2022-09-11T06:19:38.679Z,15.20
2022-09-11T06:22:29.347Z,15.30
2022-09-11T06:25:17.291Z,15.30
2022-09-11T06:28:05.179Z,15.30
2022-09-11T06:30:53.791Z,15.40
2022-09-11T06:33:43.268Z,15.40
2022-09-11T06:36:31.565Z,15.50
2022-09-11T06:39:22.787Z,15.50
2022-09-11T06:42:10.860Z,15.50
2022-09-11T06:44:58.663Z,15.50
2022-09-11T06:47:47.264Z,15.50
2022-09-11T06:50:40.271Z,15.50
2022-09-11T06:53:28.045Z,15.60
2022-09-11T06:56:16.938Z,15.60
2022-09-11T06:59:04.795Z,15.60
2022-09-11T07:01:52.674Z,15.70
2022-09-11T07:04:40.561Z,15.70
2022-09-11T07:07:30.185Z,15.80
2022-09-11T07:10:18.259Z,15.80
2022-09-11T07:13:06.023Z,15.90
2022-09-11T07:16:00.636Z,15.90
2022-09-11T07:18:48.538Z,16.00
2022-09-11T07:21:37.220Z,16.00
2022-09-11T07:24:26.415Z,16.10
2022-09-11T07:27:14.774Z,16.10
2022-09-11T07:30:03.280Z,16.10
2022-09-11T07:32:51.105Z,16.10
2022-09-11T07:35:39.151Z,16.10
2022-09-11T07:38:26.991Z,16.10
2022-09-11T07:41:16.830Z,16.10
2022-09-11T07:44:06.572Z,16.10
2022-09-11T07:46:54.443Z,16.10
2022-09-11T07:49:42.228Z,16.10
2022-09-11T07:52:30.030Z,16.10
2022-09-11T07:55:18.947Z,16.20
2022-09-11T07:58:08.741Z,16.20
2022-09-11T08:00:58.934Z,16.20
2022-09-11T08:03:46.805Z,16.30
2022-09-11T08:06:35.648Z,16.40
2022-09-11T08:09:23.501Z,16.40
2022-09-11T08:12:11.998Z,16.40
2022-09-11T08:15:01.201Z,16.50
2022-09-11T08:17:49.025Z,16.50
2022-09-11T08:20:36.877Z,16.60
2022-09-11T08:23:24.707Z,16.70
2022-09-11T08:26:13.345Z,16.70
2022-09-11T08:29:02.041Z,16.70
2022-09-11T08:31:51.516Z,16.80
2022-09-11T08:34:39.344Z,16.80
2022-09-11T08:37:27.140Z,16.90
2022-09-11T08:40:15.180Z,17.00
2022-09-11T08:43:03.966Z,17.10
2022-09-11T08:45:55.723Z,17.20
2022-09-11T08:48:47.948Z,17.30
2022-09-11T08:51:36.528Z,17.40
2022-09-11T08:54:27.591Z,17.40
2022-09-11T08:57:18.188Z,17.50
2022-09-11T09:00:08.960Z,17.50
2022-09-11T09:03:04.123Z,17.50
2022-09-11T09:05:55.656Z,17.60
2022-09-11T09:08:49.937Z,17.60
2022-09-11T09:11:41.299Z,17.80
2022-09-11T09:14:47.553Z,17.90
2022-09-11T09:17:39.313Z,18.10
2022-09-11T09:20:29.698Z,18.10
2022-09-11T09:23:21.061Z,18.10
2022-09-11T09:26:12.750Z,18.00
2022-09-11T09:29:05.800Z,18.00
2022-09-11T09:31:54.858Z,17.90
2022-09-11T09:34:44.307Z,17.90
2022-09-11T09:37:32.213Z,18.00
2022-09-11T09:40:23.750Z,18.00
2022-09-11T09:43:21.631Z,18.00
2022-09-11T09:46:16.118Z,18.10
2022-09-11T09:49:04.083Z,18.10
2022-09-11T09:51:52.557Z,18.10
2022-09-11T09:54:40.533Z,18.00
2022-09-11T09:57:31.254Z,18.10
2022-09-11T10:00:20.427Z,18.10
2022-09-11T10:03:19.019Z,18.30
2022-09-11T10:06:07.554Z,18.40
2022-09-11T10:09:00.184Z,18.60
2022-09-11T10:12:02.585Z,18.80
2022-09-11T10:14:54.322Z,18.70
2022-09-11T10:17:42.841Z,18.60
2022-09-11T10:20:32.900Z,18.60
2022-09-11T10:23:25.790Z,18.60
2022-09-11T10:26:16.225Z,18.60
2022-09-11T10:29:07.719Z,18.70
2022-09-11T10:31:57.894Z,18.80
2022-09-11T10:34:45.838Z,18.80
2022-09-11T10:37:34.294Z,18.80
2022-09-11T10:40:23.458Z,18.80
2022-09-11T10:43:19.939Z,18.80
2022-09-11T10:46:21.948Z,18.80
2022-09-11T10:49:17.212Z,18.80
2022-09-11T10:52:17.193Z,18.80
2022-09-11T10:55:07.230Z,18.80
2022-09-11T10:57:56.087Z,18.80
2022-09-11T11:00:45.009Z,18.90
2022-09-11T11:03:32.927Z,19.00
2022-09-11T11:06:32.639Z,19.00
2022-09-11T11:09:31.088Z,19.00
2022-09-11T11:12:32.181Z,19.00
2022-09-11T11:15:30.984Z,18.90
2022-09-11T11:18:26.389Z,18.90
2022-09-11T11:21:18.513Z,18.90
2022-09-11T11:24:15.321Z,18.90
2022-09-11T11:27:21.722Z,19.10
2022-09-11T11:30:11.406Z,19.30
2022-09-11T11:33:07.979Z,19.30
2022-09-11T11:36:00.777Z,19.20
2022-09-11T11:38:51.603Z,19.00
2022-09-11T11:41:44.926Z,18.90
2022-09-11T11:44:35.232Z,18.90
2022-09-11T11:47:26.183Z,18.90
2022-09-11T11:50:17.670Z,19.00
2022-09-11T11:53:07.309Z,19.00
2022-09-11T11:55:59.523Z,19.20
2022-09-11T11:58:51.217Z,19.30
2022-09-11T12:01:41.681Z,19.50
2022-09-11T12:04:34.068Z,19.70
2022-09-11T12:07:23.322Z,19.80
2022-09-11T12:10:21.664Z,19.90
2022-09-11T12:13:13.497Z,20.10
2022-09-11T12:16:12.312Z,20.20
2022-09-11T12:19:08.074Z,20.30
2022-09-11T12:22:06.511Z,20.30
2022-09-11T12:24:58.609Z,20.30
2022-09-11T12:27:54.010Z,20.20
2022-09-11T12:31:01.826Z,20.20
2022-09-11T12:33:54.568Z,20.30
2022-09-11T12:36:51.202Z,20.40
2022-09-11T12:39:40.319Z,20.40
2022-09-11T12:42:43.090Z,20.40
2022-09-11T12:45:32.669Z,20.50
2022-09-11T12:48:22.386Z,20.60
2022-09-11T12:51:20.670Z,20.40
2022-09-11T12:54:13.817Z,20.50
2022-09-11T12:57:03.549Z,20.60
2022-09-11T12:59:54.151Z,20.70
2022-09-11T13:02:43.832Z,20.80
2022-09-11T13:05:34.571Z,20.70
2022-09-11T13:08:24.695Z,20.70
2022-09-11T13:11:31.371Z,20.70
2022-09-11T13:14:37.879Z,20.80
2022-09-11T13:17:28.529Z,20.80
2022-09-11T13:20:21.642Z,20.60
2022-09-11T13:23:19.499Z,20.50
2022-09-11T13:26:09.691Z,20.40
2022-09-11T13:28:58.341Z,20.30
2022-09-11T13:31:46.681Z,20.40
2022-09-11T13:34:36.504Z,20.60
2022-09-11T13:37:31.227Z,20.90
2022-09-11T13:40:22.381Z,21.00
2022-09-11T13:43:14.899Z,21.20
2022-09-11T13:46:19.137Z,21.30
2022-09-11T13:49:24.042Z,21.40
2022-09-11T13:52:12.587Z,21.40
2022-09-11T13:55:01.406Z,21.50
2022-09-11T13:57:53.735Z,21.60
2022-09-11T14:00:44.545Z,21.70
2022-09-11T14:03:33.553Z,21.70
2022-09-11T14:06:21.867Z,21.80
2022-09-11T14:09:16.316Z,21.90
2022-09-11T14:12:04.782Z,21.90
2022-09-11T14:14:55.351Z,21.80
2022-09-11T14:17:45.057Z,21.70
2022-09-11T14:20:33.172Z,21.60
2022-09-11T14:23:27.358Z,21.40
2022-09-11T14:26:16.996Z,21.50
2022-09-11T14:29:06.930Z,21.80
2022-09-11T14:31:55.488Z,21.90
2022-09-11T14:34:44.927Z,22.00
2022-09-11T14:37:34.942Z,21.90
2022-09-11T14:40:22.847Z,22.00
2022-09-11T14:43:11.870Z,22.10
2022-09-11T14:46:00.155Z,22.00
2022-09-11T14:48:48.007Z,22.10
2022-09-11T14:51:37.564Z,22.20
2022-09-11T14:54:27.327Z,22.40
2022-09-11T14:57:20.427Z,22.60
2022-09-11T15:00:10.223Z,22.80
2022-09-11T15:03:00.357Z,23.00
2022-09-11T15:05:48.948Z,23.10
2022-09-11T15:08:39.379Z,23.20
2022-09-11T15:11:27.292Z,23.30
2022-09-11T15:14:32.260Z,23.20
2022-09-11T15:17:25.335Z,23.20
2022-09-11T15:20:13.367Z,23.20
2022-09-11T15:23:01.207Z,22.90
2022-09-11T15:25:50.349Z,22.60
2022-09-11T15:28:38.248Z,22.50
2022-09-11T15:31:26.111Z,22.40
2022-09-11T15:34:13.947Z,22.40
2022-09-11T15:37:02.221Z,22.50
2022-09-11T15:39:50.461Z,22.70
2022-09-11T15:42:39.940Z,22.70
2022-09-11T15:45:27.829Z,22.80
2022-09-11T15:48:16.618Z,22.80
2022-09-11T15:51:04.783Z,22.80
2022-09-11T15:53:53.351Z,22.90
2022-09-11T15:56:41.187Z,23.00
2022-09-11T15:59:30.363Z,23.10
2022-09-11T16:02:18.275Z,23.10
2022-09-11T16:05:06.489Z,23.00
2022-09-11T16:07:56.965Z,23.10
2022-09-11T16:10:44.772Z,22.90
2022-09-11T16:13:32.821Z,22.90
2022-09-11T16:16:22.074Z,22.80
2022-09-11T16:19:09.942Z,22.70
2022-09-11T16:21:58.662Z,22.60
2022-09-11T16:24:46.562Z,22.50
2022-09-11T16:27:35.713Z,22.50
2022-09-11T16:30:45.753Z,22.30
2022-09-11T16:33:32.909Z,22.30
2022-09-11T16:36:21.635Z,22.30
2022-09-11T16:39:10.814Z,22.20
2022-09-11T16:41:58.918Z,22.20
2022-09-11T16:44:46.686Z,22.20
2022-09-11T16:47:34.704Z,22.10
2022-09-11T16:50:24.344Z,22.10
2022-09-11T16:53:13.936Z,22.00
2022-09-11T16:56:05.201Z,22.00
2022-09-11T16:58:54.489Z,21.90
2022-09-11T17:01:42.431Z,21.80
2022-09-11T17:04:30.326Z,21.80
2022-09-11T17:07:19.707Z,21.70
2022-09-11T17:10:08.027Z,21.60
2022-09-11T17:12:56.142Z,21.50
2022-09-11T17:15:44.392Z,21.50
2022-09-11T17:18:33.204Z,21.40
2022-09-11T17:21:22.879Z,21.20
2022-09-11T17:24:12.654Z,21.10
2022-09-11T17:27:01.045Z,21.00
2022-09-11T17:29:48.894Z,20.80
2022-09-11T17:32:37.288Z,20.60
2022-09-11T17:35:25.390Z,20.50
2022-09-11T17:38:13.235Z,20.30
2022-09-11T17:41:05.874Z,20.20
2022-09-11T17:43:53.682Z,20.10
2022-09-11T17:46:41.500Z,20.00
2022-09-11T17:49:31.930Z,19.80
2022-09-11T17:52:20.472Z,19.70
2022-09-11T17:55:09.285Z,19.60
2022-09-11T17:57:58.653Z,19.50
2022-09-11T18:00:46.726Z,19.40
2022-09-11T18:03:35.491Z,19.20
2022-09-11T18:06:25.403Z,19.10
2022-09-11T18:09:16.284Z,19.00
2022-09-11T18:12:04.476Z,18.90
2022-09-11T18:14:55.897Z,18.90
2022-09-11T18:17:47.740Z,18.80
2022-09-11T18:20:35.760Z,18.70
2022-09-11T18:23:25.363Z,18.60
2022-09-11T18:26:19.902Z,18.50
2022-09-11T18:29:09.906Z,18.50
2022-09-11T18:32:00.229Z,18.40
2022-09-11T18:34:49.630Z,18.30
2022-09-11T18:37:37.479Z,18.20
2022-09-11T18:40:25.231Z,18.20
2022-09-11T18:43:13.306Z,18.20
2022-09-11T18:46:02.562Z,18.10
2022-09-11T18:48:52.697Z,18.00
2022-09-11T18:51:40.559Z,18.00
2022-09-11T18:54:30.050Z,17.90
2022-09-11T18:57:17.877Z,17.80
2022-09-11T19:00:06.596Z,17.70
2022-09-11T19:02:56.289Z,17.60
2022-09-11T19:05:45.404Z,17.60
2022-09-11T19:08:33.868Z,17.60
2022-09-11T19:11:22.809Z,17.50
2022-09-11T19:14:11.501Z,17.50
2022-09-11T19:17:00.296Z,17.50
2022-09-11T19:19:48.289Z,17.40
2022-09-11T19:22:37.900Z,17.40
2022-09-11T19:25:28.013Z,17.40
2022-09-11T19:28:15.880Z,17.30
2022-09-11T19:31:05.224Z,17.30
2022-09-11T19:33:54.473Z,17.20
2022-09-11T19:36:42.362Z,17.20
2022-09-11T19:39:31.727Z,17.10
2022-09-11T19:42:19.547Z,17.00
2022-09-11T19:45:08.260Z,17.00
2022-09-11T19:47:56.055Z,17.00
2022-09-11T19:50:44.461Z,16.90
2022-09-11T19:53:32.502Z,16.90
2022-09-11T19:56:21.712Z,16.80
2022-09-11T19:59:09.597Z,16.80
2022-09-11T20:01:57.714Z,16.70
2022-09-11T20:04:45.598Z,16.60
2022-09-11T20:07:33.736Z,16.70
2022-09-11T20:10:23.765Z,16.60
2022-09-11T20:13:13.327Z,16.70
2022-09-11T20:16:03.301Z,16.60
2022-09-11T20:18:53.384Z,16.50
2022-09-11T20:21:41.422Z,16.40
2022-09-11T20:24:29.280Z,16.40
2022-09-11T20:27:17.127Z,16.30
2022-09-11T20:30:06.845Z,16.20
2022-09-11T20:32:54.750Z,16.10
2022-09-11T20:35:42.557Z,16.10
2022-09-11T20:38:30.451Z,16.00
2022-09-11T20:41:18.262Z,16.00
2022-09-11T20:44:06.333Z,16.10
2022-09-11T20:46:55.667Z,16.20
2022-09-11T20:49:43.563Z,16.10
2022-09-11T20:52:33.245Z,16.00
2022-09-11T20:55:22.798Z,15.90
2022-09-11T20:58:11.347Z,15.90
2022-09-11T21:01:00.715Z,15.80
2022-09-11T21:03:50.916Z,15.70
2022-09-11T21:06:38.818Z,15.80
2022-09-11T21:09:26.829Z,15.80
2022-09-11T21:12:14.652Z,15.80
2022-09-11T21:15:02.599Z,15.70
2022-09-11T21:17:50.609Z,15.70
2022-09-11T21:20:39.937Z,15.60
2022-09-11T21:23:28.062Z,15.60
2022-09-11T21:26:16.871Z,15.50
2022-09-11T21:29:06.500Z,15.60
2022-09-11T21:31:54.320Z,15.50
2022-09-11T21:34:42.176Z,15.70
2022-09-11T21:37:31.488Z,15.60
2022-09-11T21:40:19.297Z,15.50
2022-09-11T21:43:07.149Z,15.40
2022-09-11T21:45:54.978Z,15.40
2022-09-11T21:48:42.814Z,15.30
2022-09-11T21:51:30.591Z,15.30
2022-09-11T21:54:19.813Z,15.30
2022-09-11T21:57:07.598Z,15.20
2022-09-11T21:59:55.452Z,15.20
2022-09-11T22:02:43.279Z,15.10
2022-09-11T22:05:31.761Z,15.00
2022-09-11T22:08:20.440Z,15.10
2022-09-11T22:11:10.641Z,15.20
2022-09-11T22:13:58.913Z,15.20
2022-09-11T22:16:46.877Z,15.10
2022-09-11T22:19:34.856Z,15.00
2022-09-11T22:22:23.131Z,15.00
2022-09-11T22:25:10.968Z,14.90
2022-09-11T22:28:00.124Z,14.80
2022-09-11T22:30:48.571Z,14.80
2022-09-11T22:33:37.857Z,14.70
2022-09-11T22:36:28.011Z,14.70
2022-09-11T22:39:16.452Z,14.60
2022-09-11T22:42:04.611Z,14.60
2022-09-11T22:44:54.004Z,14.60
2022-09-11T22:47:41.946Z,14.50
2022-09-11T22:50:29.947Z,14.50
2022-09-11T22:53:18.024Z,14.40
2022-09-11T22:56:06.259Z,14.40
2022-09-11T22:58:54.556Z,14.40
2022-09-11T23:01:43.734Z,14.40
2022-09-11T23:04:31.571Z,14.30
2022-09-11T23:07:18.652Z,14.30
2022-09-11T23:10:07.644Z,14.30
2022-09-11T23:12:55.692Z,14.30
2022-09-11T23:15:43.994Z,14.20
2022-09-11T23:18:33.393Z,14.20
2022-09-11T23:21:21.254Z,14.10
2022-09-11T23:24:10.479Z,14.10
2022-09-11T23:26:58.293Z,14.10
2022-09-11T23:29:46.319Z,14.10
2022-09-11T23:32:35.918Z,14.00
2022-09-11T23:35:28.161Z,14.00
2022-09-11T23:38:16.010Z,14.00
2022-09-11T23:41:04.021Z,13.90
2022-09-11T23:43:51.870Z,13.90
2022-09-11T23:46:39.832Z,13.90
2022-09-11T23:49:32.132Z,13.80
2022-09-11T23:52:23.628Z,13.80
2022-09-11T23:55:11.742Z,13.80
2022-09-11T23:58:00.956Z,13.70
